createdAt,value
2022-09-28T00:00:47.069Z,8.20
2022-09-28T00:02:20.112Z,8.20
2022-09-28T00:03:57.407Z,7.30
2022-09-28T00:05:30.887Z,9.00
2022-09-28T00:07:03.737Z,7.10
2022-09-28T00:08:37.608Z,8.60
2022-09-28T00:10:11.052Z,9.20
2022-09-28T00:11:46.072Z,9.10
2022-09-28T00:13:19.141Z,8.30
2022-09-28T00:14:51.202Z,8.40
2022-09-28T00:16:26.615Z,9.10
2022-09-28T00:17:59.533Z,8.40
2022-09-28T00:19:32.598Z,8.90
2022-09-28T00:21:08.071Z,8.50
2022-09-28T00:22:41.345Z,8.40
2022-09-28T00:24:18.665Z,7.10
2022-09-28T00:25:51.540Z,8.50
2022-09-28T00:27:25.822Z,8.50
2022-09-28T00:28:59.417Z,7.10
2022-09-28T00:30:32.287Z,7.50
2022-09-28T00:32:07.601Z,7.00
2022-09-28T00:33:40.566Z,9.20
2022-09-28T00:35:13.395Z,9.10
2022-09-28T00:36:48.106Z,8.30
2022-09-28T00:38:20.174Z,10.20
2022-09-28T00:41:26.467Z,7.40
2022-09-28T00:43:17.523Z,9.60
2022-09-28T00:44:51.585Z,10.30
2022-09-28T00:46:32.162Z,9.30
2022-09-28T00:48:05.245Z,8.40
2022-09-28T00:49:43.285Z,7.20
2022-09-28T00:51:16.187Z,8.50
2022-09-28T00:52:53.113Z,7.20
2022-09-28T00:54:26.233Z,7.80
2022-09-28T00:56:04.067Z,6.40
2022-09-28T00:57:39.070Z,8.60
2022-09-28T00:59:13.568Z,8.50
2022-09-28T01:00:47.361Z,8.20
2022-09-28T01:02:21.109Z,7.80
2022-09-28T01:03:54.757Z,7.50
2022-09-28T01:05:28.545Z,8.60
2022-09-28T01:07:01.658Z,8.60
2022-09-28T01:08:35.991Z,10.20
2022-09-28T01:10:09.922Z,8.30
2022-09-28T01:11:43.977Z,7.40
2022-09-28T01:13:18.333Z,8.70
2022-09-28T01:14:53.758Z,9.60
2022-09-28T01:16:38.995Z,6.90
2022-09-28T01:18:18.189Z,7.00
2022-09-28T01:20:26.714Z,9.60
2022-09-28T01:22:14.626Z,9.70
2022-09-28T01:24:09.577Z,9.20
2022-09-28T01:25:46.731Z,7.20
2022-09-28T01:27:26.651Z,7.90
2022-09-28T01:29:06.097Z,9.70
2022-09-28T01:30:44.677Z,8.50
2022-09-28T01:32:24.908Z,6.50
2022-09-28T01:34:03.915Z,8.70
2022-09-28T01:35:41.266Z,8.70
2022-09-28T01:37:17.580Z,8.00
2022-09-28T01:38:53.630Z,8.40
2022-09-28T01:40:28.352Z,10.20
2022-09-28T01:42:05.574Z,9.30
2022-09-28T01:43:43.834Z,8.70
2022-09-28T01:45:23.709Z,7.80
2022-09-28T01:47:03.460Z,7.20
2022-09-28T01:48:42.719Z,9.40
2022-09-28T01:50:18.399Z,8.80
2022-09-28T01:51:55.548Z,9.90
2022-09-28T01:53:34.083Z,8.60
2022-09-28T01:55:12.404Z,7.80
2022-09-28T01:56:49.484Z,7.40
2022-09-28T01:58:28.591Z,7.40
2022-09-28T02:00:07.292Z,8.60
2022-09-28T02:01:45.145Z,8.70
2022-09-28T02:03:21.504Z,8.70
2022-09-28T02:04:58.440Z,10.20
2022-09-28T02:06:38.747Z,10.40
2022-09-28T02:08:20.064Z,9.30
2022-09-28T02:09:58.442Z,8.60
2022-09-28T02:11:33.285Z,9.20
2022-09-28T02:13:12.239Z,9.40
2022-09-28T02:14:48.942Z,8.50
2022-09-28T02:16:32.234Z,8.60
2022-09-28T02:18:05.478Z,8.70
2022-09-28T02:19:39.629Z,10.10
2022-09-28T02:21:16.808Z,9.80
2022-09-28T02:22:52.750Z,9.20
2022-09-28T02:24:33.014Z,7.90
2022-09-28T02:26:10.138Z,9.60
2022-09-28T02:27:46.193Z,8.50
2022-09-28T02:29:19.349Z,8.50
2022-09-28T02:30:51.252Z,8.50
2022-09-28T02:32:27.011Z,9.40
2022-09-28T02:34:00.586Z,7.60
2022-09-28T02:37:08.264Z,7.60
2022-09-28T02:38:41.241Z,9.20
2022-09-28T02:40:16.120Z,9.20
2022-09-28T02:42:01.550Z,7.30
2022-09-28T02:43:42.337Z,9.30
2022-09-28T02:45:21.366Z,8.90
2022-09-28T02:47:01.093Z,7.00
2022-09-28T02:49:00.068Z,9.40
2022-09-28T02:50:46.510Z,9.10
2022-09-28T02:52:45.252Z,9.60
2022-09-28T02:54:31.246Z,7.30
2022-09-28T02:56:21.203Z,8.60
2022-09-28T02:58:09.648Z,9.10
2022-09-28T02:59:51.211Z,8.30
2022-09-28T03:01:31.683Z,6.60
2022-09-28T03:03:12.506Z,7.20
2022-09-28T03:04:57.759Z,9.20
2022-09-28T03:06:38.402Z,9.60
2022-09-28T03:08:20.296Z,7.10
2022-09-28T03:10:02.696Z,9.30
2022-09-28T03:11:41.713Z,8.80
2022-09-28T03:13:16.398Z,8.10
2022-09-28T03:16:22.792Z,8.70
2022-09-28T03:17:54.867Z,7.90
2022-09-28T03:19:31.463Z,6.40
2022-09-28T03:21:06.502Z,8.00
2022-09-28T03:22:39.459Z,9.70
2022-09-28T03:24:12.443Z,9.30
2022-09-28T03:25:44.388Z,9.30
2022-09-28T03:27:17.299Z,9.50
2022-09-28T03:28:50.240Z,8.50
2022-09-28T03:30:23.234Z,7.70
2022-09-28T03:31:56.220Z,9.30
2022-09-28T03:33:29.306Z,7.10
2022-09-28T03:35:02.275Z,9.40
2022-09-28T03:36:36.642Z,8.50
2022-09-28T03:39:42.882Z,9.60
2022-09-28T03:41:15.785Z,8.90
2022-09-28T03:44:21.950Z,8.60
2022-09-28T03:45:55.392Z,9.90
2022-09-28T03:49:00.634Z,6.40
2022-09-28T03:50:33.504Z,7.40
2022-09-28T03:52:07.922Z,7.70
2022-09-28T03:53:41.571Z,7.40
2022-09-28T03:55:14.670Z,8.80
2022-09-28T03:56:46.718Z,8.30
2022-09-28T03:58:20.234Z,8.20
2022-09-28T03:59:53.305Z,7.70
2022-09-28T04:01:26.363Z,9.30
2022-09-28T04:02:59.353Z,7.70
2022-09-28T04:04:32.358Z,8.90
2022-09-28T04:06:05.442Z,9.60
2022-09-28T04:07:39.775Z,9.60
2022-09-28T04:09:12.832Z,8.10
2022-09-28T04:12:19.391Z,9.40
2022-09-28T04:13:52.281Z,8.60
2022-09-28T04:15:25.551Z,7.70
2022-09-28T04:16:58.427Z,7.50
2022-09-28T04:18:32.534Z,10.40
2022-09-28T04:20:07.053Z,8.60
2022-09-28T04:21:39.952Z,10.90
2022-09-28T04:23:14.236Z,10.80
2022-09-28T04:24:47.297Z,8.10
2022-09-28T04:26:20.681Z,8.70
2022-09-28T04:28:10.947Z,8.70
2022-09-28T04:29:43.872Z,9.30
2022-09-28T04:31:18.719Z,9.30
2022-09-28T04:32:51.708Z,8.50
2022-09-28T04:34:24.665Z,9.70
2022-09-28T04:35:57.613Z,6.80
2022-09-28T04:37:31.310Z,8.70
2022-09-28T04:39:06.064Z,9.70
2022-09-28T04:40:39.109Z,7.60
2022-09-28T04:42:12.253Z,9.50
2022-09-28T04:45:18.517Z,8.80
2022-09-28T04:46:51.506Z,10.50
2022-09-28T04:48:23.702Z,9.50
2022-09-28T04:49:56.650Z,8.10
2022-09-28T04:51:32.629Z,9.60
2022-09-28T04:53:05.740Z,8.90
2022-09-28T04:54:40.153Z,8.00
2022-09-28T04:56:14.857Z,8.10
2022-09-28T04:57:48.188Z,9.50
2022-09-28T04:59:20.940Z,8.90
2022-09-28T05:02:27.745Z,8.50
2022-09-28T05:04:00.570Z,8.90
2022-09-28T05:05:33.548Z,9.70
2022-09-28T05:08:39.675Z,8.90
2022-09-28T05:10:14.021Z,10.10
2022-09-28T05:11:47.079Z,7.50
2022-09-28T05:13:20.966Z,8.50
2022-09-28T05:14:53.856Z,9.80
2022-09-28T05:16:27.807Z,7.80
2022-09-28T05:18:00.896Z,9.60
2022-09-28T05:19:34.856Z,8.90
2022-09-28T05:21:11.295Z,7.90
2022-09-28T05:22:44.384Z,7.70
2022-09-28T05:24:17.713Z,10.00
2022-09-28T05:25:52.183Z,11.20
2022-09-28T05:27:25.185Z,7.80
2022-09-28T05:28:58.307Z,10.00
2022-09-28T05:30:31.645Z,9.00
2022-09-28T05:33:39.033Z,8.90
2022-09-28T05:35:12.696Z,9.30
2022-09-28T05:36:46.033Z,10.10
2022-09-28T05:38:18.098Z,9.10
2022-09-28T05:39:51.317Z,9.30
2022-09-28T05:41:25.783Z,9.50
2022-09-28T05:43:00.955Z,8.80
2022-09-28T05:44:34.015Z,9.90
2022-09-28T05:46:07.603Z,9.30
2022-09-28T05:47:40.946Z,9.90
2022-09-28T05:49:14.094Z,9.10
2022-09-28T05:50:51.619Z,9.30
2022-09-28T05:52:24.592Z,9.20
2022-09-28T05:54:01.810Z,7.50
2022-09-28T05:55:39.830Z,10.00
2022-09-28T05:57:16.274Z,9.00
2022-09-28T05:58:58.531Z,8.20
2022-09-28T06:00:35.739Z,9.70
2022-09-28T06:02:16.134Z,9.30
2022-09-28T06:03:53.227Z,10.20
2022-09-28T06:05:32.113Z,7.80
2022-09-28T06:07:05.212Z,9.80
2022-09-28T06:08:38.254Z,9.30
2022-09-28T06:10:11.241Z,11.00
2022-09-28T06:11:44.443Z,8.40
2022-09-28T06:13:18.856Z,10.30
2022-09-28T06:14:51.818Z,10.40
2022-09-28T06:16:27.689Z,9.90
2022-09-28T06:18:02.201Z,10.50
2022-09-28T06:19:35.311Z,10.30
2022-09-28T06:21:10.788Z,9.80
2022-09-28T06:22:43.858Z,9.80
2022-09-28T06:24:18.507Z,9.00
2022-09-28T06:25:51.590Z,10.60
2022-09-28T06:29:00.481Z,10.00
2022-09-28T06:30:38.428Z,8.70
2022-09-28T06:32:13.844Z,10.80
2022-09-28T06:33:47.286Z,8.80
2022-09-28T06:36:54.006Z,10.90
2022-09-28T06:38:27.062Z,9.30
2022-09-28T06:40:00.074Z,11.00
2022-09-28T06:41:33.098Z,9.20
2022-09-28T06:43:10.349Z,11.90
2022-09-28T06:44:46.795Z,11.40
2022-09-28T06:46:20.822Z,10.20
2022-09-28T06:47:56.563Z,10.60
2022-09-28T06:49:30.295Z,11.40
2022-09-28T06:51:03.718Z,12.20
2022-09-28T06:52:35.655Z,10.50
2022-09-28T06:54:08.699Z,10.90
2022-09-28T06:55:42.497Z,12.10
2022-09-28T06:58:49.086Z,10.50
2022-09-28T07:00:22.331Z,11.70
2022-09-28T07:01:55.776Z,11.00
2022-09-28T07:03:29.335Z,9.70
2022-09-28T07:05:03.049Z,13.20
2022-09-28T07:06:36.231Z,10.20
2022-09-28T07:08:09.176Z,10.80
2022-09-28T07:09:58.914Z,9.70
2022-09-28T07:11:34.331Z,11.60
2022-09-28T07:13:10.639Z,11.70
2022-09-28T07:14:50.474Z,12.10
2022-09-28T07:16:28.328Z,12.30
2022-09-28T07:18:07.424Z,10.50
2022-09-28T07:19:40.551Z,11.60
2022-09-28T07:21:25.729Z,10.40
2022-09-28T07:23:15.965Z,10.10
2022-09-28T07:24:54.854Z,10.20
2022-09-28T07:26:27.991Z,11.00
2022-09-28T07:28:01.595Z,11.40
2022-09-28T07:29:34.851Z,11.40
2022-09-28T07:31:09.614Z,10.20
2022-09-28T07:32:45.937Z,11.90
2022-09-28T07:34:19.135Z,12.10
2022-09-28T07:35:52.203Z,11.60
2022-09-28T07:38:59.561Z,10.20
2022-09-28T07:40:50.781Z,10.40
2022-09-28T07:42:24.355Z,9.60
2022-09-28T07:43:57.254Z,10.30
2022-09-28T07:45:31.517Z,10.50
2022-09-28T07:48:40.973Z,13.10
2022-09-28T07:50:14.081Z,13.10
2022-09-28T07:51:46.977Z,11.70
2022-09-28T07:53:20.235Z,11.80
2022-09-28T07:54:54.217Z,9.90
2022-09-28T07:56:27.259Z,10.70
2022-09-28T07:58:01.694Z,12.60
2022-09-28T07:59:34.654Z,10.50
2022-09-28T08:01:10.390Z,12.60
2022-09-28T08:02:43.572Z,11.70
2022-09-28T08:04:17.887Z,12.70
2022-09-28T08:05:50.970Z,12.80
2022-09-28T08:07:25.611Z,12.60
2022-09-28T08:09:01.711Z,11.70
2022-09-28T08:12:08.109Z,10.70
2022-09-28T08:13:41.310Z,9.90
2022-09-28T08:15:14.408Z,10.90
2022-09-28T08:16:49.554Z,8.80
2022-09-28T08:18:24.962Z,9.20
2022-09-28T08:20:18.607Z,8.80
2022-09-28T08:21:51.590Z,9.90
2022-09-28T08:24:57.760Z,8.00
2022-09-28T08:26:31.952Z,8.10
2022-09-28T08:28:07.465Z,10.40
2022-09-28T08:29:41.372Z,8.40
2022-09-28T08:31:14.499Z,8.40
2022-09-28T08:32:49.713Z,9.60
2022-09-28T08:34:22.638Z,8.00
2022-09-28T08:36:01.485Z,10.70
2022-09-28T08:37:34.421Z,10.00
2022-09-28T08:39:07.605Z,9.70
2022-09-28T08:40:51.421Z,9.00
2022-09-28T08:42:31.692Z,10.10
2022-09-28T08:44:16.690Z,10.10
2022-09-28T08:45:50.166Z,11.70
2022-09-28T08:47:44.587Z,8.90
2022-09-28T08:49:25.538Z,10.40
2022-09-28T08:51:06.480Z,11.00
2022-09-28T08:52:41.591Z,12.40
2022-09-28T08:54:28.597Z,8.60
2022-09-28T08:56:05.284Z,10.30
2022-09-28T08:57:45.735Z,10.60
2022-09-28T08:59:22.303Z,10.70
2022-09-28T09:00:56.031Z,10.20
2022-09-28T09:02:33.407Z,10.00
2022-09-28T09:04:08.103Z,11.10
2022-09-28T09:05:52.036Z,9.50
2022-09-28T09:07:54.867Z,12.50
2022-09-28T09:09:39.787Z,13.30
2022-09-28T09:11:26.922Z,13.20
2022-09-28T09:13:07.315Z,10.20
2022-09-28T09:15:08.496Z,12.00
2022-09-28T09:17:00.395Z,11.70
2022-09-28T09:18:38.640Z,12.00
2022-09-28T09:20:20.078Z,12.80
2022-09-28T09:22:01.522Z,13.50
2022-09-28T09:23:49.546Z,13.30
2022-09-28T09:25:29.360Z,10.00
2022-09-28T09:27:07.498Z,12.20
2022-09-28T09:29:03.266Z,10.80
2022-09-28T09:30:47.972Z,9.90
2022-09-28T09:32:38.422Z,11.90
2022-09-28T09:34:35.395Z,12.10
2022-09-28T09:36:18.007Z,13.10
2022-09-28T09:38:19.387Z,10.30
2022-09-28T09:40:05.812Z,11.50
2022-09-28T09:41:48.383Z,11.20
2022-09-28T09:43:44.308Z,10.90
2022-09-28T09:45:32.379Z,9.20
2022-09-28T09:47:09.132Z,10.70
2022-09-28T09:48:50.045Z,11.50
2022-09-28T09:50:29.988Z,10.90
2022-09-28T09:52:07.689Z,10.30
2022-09-28T09:53:46.906Z,11.50
2022-09-28T09:55:29.882Z,9.80
2022-09-28T09:57:08.532Z,12.30
2022-09-28T09:58:46.221Z,12.10
2022-09-28T10:00:20.182Z,11.80
2022-09-28T10:01:54.658Z,11.60
2022-09-28T10:03:29.679Z,10.10
2022-09-28T10:05:07.651Z,11.90
2022-09-28T10:06:43.309Z,12.20
2022-09-28T10:08:20.812Z,13.50
2022-09-28T10:09:58.354Z,13.50
2022-09-28T10:11:36.992Z,13.30
2022-09-28T10:13:10.961Z,13.30
2022-09-28T10:14:44.063Z,13.70
2022-09-28T10:16:19.024Z,11.00
2022-09-28T10:17:52.283Z,13.20
2022-09-28T10:19:32.474Z,12.80
2022-09-28T10:21:07.465Z,13.40
2022-09-28T10:22:43.124Z,13.40
2022-09-28T10:24:20.180Z,11.50
2022-09-28T10:25:55.117Z,14.00
2022-09-28T10:27:32.692Z,13.80
2022-09-28T10:29:13.101Z,13.10
2022-09-28T10:30:46.071Z,13.10
2022-09-28T10:32:21.580Z,12.60
2022-09-28T10:33:54.974Z,14.10
2022-09-28T10:35:28.746Z,12.90
2022-09-28T10:37:05.552Z,13.40
2022-09-28T10:38:38.696Z,13.20
2022-09-28T10:40:35.655Z,13.60
2022-09-28T10:42:10.987Z,13.50
2022-09-28T10:44:05.989Z,12.10
2022-09-28T10:45:39.968Z,13.80
2022-09-28T10:47:19.564Z,16.00
2022-09-28T10:48:55.860Z,14.20
2022-09-28T10:50:29.480Z,14.90
2022-09-28T10:52:02.667Z,14.70
2022-09-28T10:53:37.469Z,14.80
2022-09-28T10:55:29.396Z,15.20
2022-09-28T10:57:02.617Z,14.80
2022-09-28T10:58:39.707Z,12.80
2022-09-28T11:00:31.979Z,14.70
2022-09-28T11:02:14.727Z,14.30
2022-09-28T11:03:55.608Z,14.20
2022-09-28T11:05:30.108Z,14.90
2022-09-28T11:07:03.453Z,15.90
2022-09-28T11:08:38.462Z,14.30
2022-09-28T11:10:21.062Z,12.10
2022-09-28T11:11:54.093Z,11.70
2022-09-28T11:13:28.326Z,14.50
2022-09-28T11:15:03.943Z,11.60
2022-09-28T11:16:39.519Z,14.00
2022-09-28T11:18:22.417Z,13.80
2022-09-28T11:19:56.317Z,15.10
2022-09-28T11:21:32.171Z,11.70
2022-09-28T11:23:20.428Z,13.90
2022-09-28T11:24:53.440Z,13.30
2022-09-28T11:26:26.560Z,14.70
2022-09-28T11:28:04.326Z,13.30
2022-09-28T11:29:41.711Z,12.30
2022-09-28T11:31:14.796Z,13.60
2022-09-28T11:32:49.234Z,12.30
2022-09-28T11:34:41.571Z,14.20
2022-09-28T11:36:34.671Z,12.20
2022-09-28T11:38:19.607Z,13.30
2022-09-28T11:40:00.215Z,13.30
2022-09-28T11:41:43.035Z,13.90
2022-09-28T11:43:27.623Z,13.70
2022-09-28T11:45:10.537Z,15.10
2022-09-28T11:46:53.053Z,13.90
2022-09-28T11:48:34.327Z,13.40
2022-09-28T11:50:23.779Z,14.70
2022-09-28T11:52:02.238Z,13.70
2022-09-28T11:53:39.974Z,13.00
2022-09-28T11:55:27.994Z,13.20
2022-09-28T11:57:02.541Z,12.80
2022-09-28T11:58:38.424Z,14.00
2022-09-28T12:00:16.783Z,11.40
2022-09-28T12:01:54.205Z,13.10
2022-09-28T12:03:34.878Z,12.90
2022-09-28T12:05:20.726Z,14.30
2022-09-28T12:06:59.168Z,14.90
2022-09-28T12:08:37.329Z,14.00
2022-09-28T12:10:15.825Z,12.00
2022-09-28T12:11:52.448Z,13.50
2022-09-28T12:13:29.587Z,12.30
2022-09-28T12:15:05.957Z,15.70
2022-09-28T12:17:05.029Z,14.90
2022-09-28T12:18:47.987Z,14.30
2022-09-28T12:20:25.346Z,13.80
2022-09-28T12:22:03.528Z,13.60
2022-09-28T12:23:39.333Z,15.10
2022-09-28T12:25:16.003Z,11.80
2022-09-28T12:26:53.550Z,13.30
2022-09-28T12:28:34.752Z,13.30
2022-09-28T12:30:16.062Z,12.70
2022-09-28T12:32:02.766Z,14.00
2022-09-28T12:33:35.744Z,13.40
2022-09-28T12:35:21.050Z,15.60
2022-09-28T12:37:10.020Z,11.80
2022-09-28T12:39:21.833Z,14.20
2022-09-28T12:40:58.264Z,14.70
2022-09-28T12:42:56.349Z,14.50
2022-09-28T12:44:59.477Z,15.10
2022-09-28T12:47:10.799Z,16.50
2022-09-28T12:49:56.353Z,14.70
2022-09-28T12:51:10.322Z,15.30
2022-09-28T12:52:51.785Z,15.10
2022-09-28T12:54:58.113Z,15.10
2022-09-28T12:56:40.433Z,14.50
2022-09-28T12:58:36.525Z,14.60
2022-09-28T13:00:14.463Z,14.70
2022-09-28T13:02:26.855Z,14.30
2022-09-28T13:04:49.079Z,14.70
2022-09-28T13:06:35.440Z,12.60
2022-09-28T13:08:13.647Z,14.30
2022-09-28T13:09:55.649Z,14.80
2022-09-28T13:11:34.736Z,15.70
2022-09-28T13:13:24.555Z,14.50
2022-09-28T13:15:21.720Z,14.50
2022-09-28T13:17:01.672Z,12.10
2022-09-28T13:18:42.089Z,12.70
2022-09-28T13:20:25.868Z,14.00
2022-09-28T13:22:02.312Z,14.00
2022-09-28T13:23:40.445Z,14.10
2022-09-28T13:25:17.626Z,16.00
2022-09-28T13:26:50.972Z,16.40
2022-09-28T13:28:27.188Z,14.50
2022-09-28T13:30:04.199Z,14.50
2022-09-28T13:31:41.076Z,14.50
2022-09-28T13:33:21.769Z,14.70
2022-09-28T13:34:55.347Z,14.90
2022-09-28T13:36:39.539Z,14.90
2022-09-28T13:38:54.178Z,15.60
2022-09-28T13:41:16.985Z,15.10
2022-09-28T13:43:06.688Z,15.20
2022-09-28T13:45:09.571Z,15.40
2022-09-28T13:46:52.042Z,15.40
2022-09-28T13:48:35.686Z,14.90
2022-09-28T13:50:22.174Z,14.90
2022-09-28T13:52:06.104Z,14.50
2022-09-28T13:53:55.601Z,15.20
2022-09-28T13:55:37.189Z,14.40
2022-09-28T13:57:20.017Z,16.00
2022-09-28T13:58:58.094Z,14.90
2022-09-28T14:00:36.585Z,14.80
2022-09-28T14:02:20.971Z,14.80
2022-09-28T14:04:10.536Z,14.30
2022-09-28T14:05:53.356Z,14.70
2022-09-28T14:09:24.808Z,15.20
2022-09-28T14:10:58.712Z,14.60
2022-09-28T14:12:46.270Z,14.60
2022-09-28T14:14:44.567Z,14.50
2022-09-28T14:16:22.811Z,15.00
2022-09-28T14:18:13.904Z,14.20
2022-09-28T14:19:50.385Z,13.00
2022-09-28T14:21:53.024Z,14.30
2022-09-28T14:23:47.742Z,14.70
2022-09-28T14:25:25.518Z,12.60
2022-09-28T14:27:15.706Z,14.00
2022-09-28T14:29:08.042Z,14.00
2022-09-28T14:30:49.537Z,14.00
2022-09-28T14:32:33.081Z,14.70
2022-09-28T14:34:13.938Z,13.00
2022-09-28T14:35:50.695Z,14.10
2022-09-28T14:37:47.003Z,15.40
2022-09-28T14:39:46.294Z,15.30
2022-09-28T14:41:34.476Z,13.70
2022-09-28T14:43:27.800Z,13.80
2022-09-28T14:45:33.718Z,13.80
2022-09-28T14:47:35.151Z,14.00
2022-09-28T14:49:42.822Z,13.90
2022-09-28T14:52:04.492Z,14.00
2022-09-28T14:53:43.896Z,13.90
2022-09-28T14:55:19.969Z,13.90
2022-09-28T14:57:08.106Z,13.90
2022-09-28T14:58:43.281Z,13.20
2022-09-28T15:00:21.347Z,12.70
2022-09-28T15:02:00.838Z,13.30
2022-09-28T15:03:35.686Z,13.90
2022-09-28T15:05:37.627Z,13.90
2022-09-28T15:07:21.300Z,13.70
2022-09-28T15:08:54.314Z,13.80
2022-09-28T15:10:32.331Z,13.90
2022-09-28T15:12:15.630Z,13.20
2022-09-28T15:13:48.850Z,14.30
2022-09-28T15:15:29.539Z,14.00
2022-09-28T15:17:10.673Z,14.90
2022-09-28T15:18:59.634Z,14.10
2022-09-28T15:20:36.425Z,15.10
2022-09-28T15:22:16.696Z,14.30
2022-09-28T15:23:50.394Z,14.30
2022-09-28T15:25:25.076Z,14.90
2022-09-28T15:26:58.405Z,14.30
2022-09-28T15:28:35.167Z,14.20
2022-09-28T15:30:23.116Z,14.60
2022-09-28T15:31:56.081Z,14.00
2022-09-28T15:33:48.315Z,14.10
2022-09-28T15:35:23.143Z,13.10
2022-09-28T15:36:56.404Z,13.80
2022-09-28T15:38:30.076Z,13.70
2022-09-28T15:40:03.922Z,13.60
2022-09-28T15:41:36.985Z,13.80
2022-09-28T15:43:24.759Z,13.50
2022-09-28T15:45:07.858Z,14.80
2022-09-28T15:46:44.206Z,13.40
2022-09-28T15:48:21.505Z,13.30
2022-09-28T15:49:59.185Z,13.30
2022-09-28T15:51:46.570Z,13.20
2022-09-28T15:53:19.885Z,11.90
2022-09-28T15:54:52.886Z,13.00
2022-09-28T15:56:26.852Z,13.00
2022-09-28T15:58:08.840Z,12.70
2022-09-28T15:59:43.909Z,12.20
2022-09-28T16:01:27.083Z,12.80
2022-09-28T16:03:03.669Z,12.70
2022-09-28T16:04:39.711Z,12.70
2022-09-28T16:06:12.711Z,12.60
2022-09-28T16:07:56.269Z,12.50
2022-09-28T16:09:36.110Z,12.50
2022-09-28T16:11:19.112Z,11.90
2022-09-28T16:12:56.581Z,12.40
2022-09-28T16:14:29.572Z,12.30
2022-09-28T16:16:05.568Z,12.30
2022-09-28T16:17:41.699Z,12.30
2022-09-28T16:19:24.123Z,12.30
2022-09-28T16:21:03.206Z,11.30
2022-09-28T16:22:36.507Z,12.10
2022-09-28T16:24:19.783Z,12.00
2022-09-28T16:25:55.748Z,12.00
2022-09-28T16:27:39.860Z,11.90
2022-09-28T16:29:27.325Z,11.90
2022-09-28T16:31:02.949Z,11.30
2022-09-28T16:32:41.885Z,11.70
2022-09-28T16:34:21.076Z,11.60
2022-09-28T16:35:54.165Z,11.50
2022-09-28T16:37:32.610Z,10.80
2022-09-28T16:39:05.665Z,11.40
2022-09-28T16:41:11.853Z,11.20
2022-09-28T16:42:49.090Z,12.00
2022-09-28T16:44:25.859Z,11.00
2022-09-28T16:46:02.190Z,10.10
2022-09-28T16:47:36.005Z,9.90
2022-09-28T16:49:18.671Z,10.80
2022-09-28T16:50:52.903Z,10.80
2022-09-28T16:52:39.768Z,10.70
2022-09-28T16:54:33.590Z,11.00
2022-09-28T16:56:07.600Z,10.70
2022-09-28T16:57:40.600Z,10.00
2022-09-28T16:59:14.009Z,9.20
2022-09-28T17:00:47.218Z,10.80
2022-09-28T17:04:20.941Z,11.60
2022-09-28T17:05:55.131Z,10.80
2022-09-28T17:07:28.161Z,10.80
2022-09-28T17:09:06.726Z,10.80
2022-09-28T17:11:02.460Z,10.80
2022-09-28T17:12:37.691Z,12.90
2022-09-28T17:14:10.719Z,11.20
2022-09-28T17:15:43.938Z,11.20
2022-09-28T17:17:17.368Z,10.90
2022-09-28T17:18:50.691Z,10.50
2022-09-28T17:20:27.830Z,11.50
2022-09-28T17:22:00.905Z,11.60
2022-09-28T17:23:34.151Z,11.00
2022-09-28T17:25:10.141Z,11.00
2022-09-28T17:26:47.378Z,11.20
2022-09-28T17:28:23.391Z,12.60
2022-09-28T17:29:56.424Z,11.10
2022-09-28T17:31:30.073Z,11.00
2022-09-28T17:33:03.229Z,11.00
2022-09-28T17:34:36.341Z,11.00
2022-09-28T17:36:15.914Z,11.00
2022-09-28T17:37:48.941Z,10.90
2022-09-28T17:39:24.864Z,11.20
2022-09-28T17:40:58.120Z,10.80
2022-09-28T17:42:31.294Z,10.80
2022-09-28T17:44:04.227Z,10.70
2022-09-28T17:45:41.152Z,10.60
2022-09-28T17:47:14.691Z,10.60
2022-09-28T17:48:47.778Z,10.50
2022-09-28T17:50:24.074Z,10.50
2022-09-28T17:51:58.406Z,10.40
2022-09-28T17:53:31.310Z,9.70
2022-09-28T17:55:04.648Z,10.30
2022-09-28T17:56:37.891Z,10.40
2022-09-28T17:58:17.692Z,10.30
2022-09-28T17:59:51.070Z,10.20
2022-09-28T18:01:23.908Z,10.20
2022-09-28T18:02:58.440Z,10.20
2022-09-28T18:04:50.787Z,10.10
2022-09-28T18:06:24.469Z,9.50
2022-09-28T18:07:59.267Z,10.00
2022-09-28T18:09:32.440Z,9.80
2022-09-28T18:11:05.588Z,11.40
2022-09-28T18:12:38.671Z,10.00
2022-09-28T18:14:11.720Z,10.00
2022-09-28T18:15:45.147Z,11.50
2022-09-28T18:17:18.522Z,10.40
2022-09-28T18:18:51.375Z,10.10
2022-09-28T18:20:24.806Z,10.80
2022-09-28T18:21:58.263Z,10.20
2022-09-28T18:23:33.359Z,10.70
2022-09-28T18:25:09.157Z,8.50
2022-09-28T18:26:42.403Z,10.20
2022-09-28T18:28:16.272Z,10.20
2022-09-28T18:29:49.774Z,10.20
2022-09-28T18:31:22.876Z,10.00
2022-09-28T18:32:56.375Z,10.50
2022-09-28T18:34:29.890Z,9.90
2022-09-28T18:36:04.996Z,10.20
2022-09-28T18:37:39.940Z,11.00
2022-09-28T18:39:14.739Z,10.90
2022-09-28T18:40:48.879Z,8.80
2022-09-28T18:42:22.413Z,8.00
2022-09-28T18:44:00.444Z,9.90
2022-09-28T18:45:34.921Z,9.50
2022-09-28T18:47:08.312Z,10.20
2022-09-28T18:48:41.886Z,10.20
2022-09-28T18:50:16.320Z,10.20
2022-09-28T18:51:49.613Z,11.30
2022-09-28T18:53:23.403Z,10.10
2022-09-28T18:54:57.946Z,10.00
2022-09-28T18:56:31.014Z,10.00
2022-09-28T18:58:04.198Z,11.60
2022-09-28T18:59:37.252Z,8.40
2022-09-28T19:03:06.447Z,10.30
2022-09-28T19:04:40.304Z,10.30
2022-09-28T19:06:15.220Z,9.70
2022-09-28T19:07:48.621Z,9.00
2022-09-28T19:09:22.384Z,9.50
2022-09-28T19:11:05.594Z,9.40
2022-09-28T19:12:38.560Z,10.20
2022-09-28T19:14:15.085Z,9.50
2022-09-28T19:15:48.166Z,9.50
2022-09-28T19:17:21.331Z,9.70
2022-09-28T19:18:54.324Z,8.10
2022-09-28T19:20:27.304Z,9.50
2022-09-28T19:22:00.512Z,7.70
2022-09-28T19:23:34.150Z,11.10
2022-09-28T19:25:08.289Z,11.80
2022-09-28T19:26:42.831Z,9.90
2022-09-28T19:28:15.962Z,9.40
2022-09-28T19:29:48.975Z,10.20
2022-09-28T19:31:24.211Z,10.90
2022-09-28T19:32:57.182Z,10.30
2022-09-28T19:34:30.260Z,9.30
2022-09-28T19:36:05.450Z,10.60
2022-09-28T19:37:38.879Z,8.50
2022-09-28T19:39:14.199Z,9.20
2022-09-28T19:40:47.140Z,9.20
2022-09-28T19:42:21.650Z,9.60
2022-09-28T19:43:55.486Z,9.40
2022-09-28T19:45:29.256Z,9.10
2022-09-28T19:47:06.702Z,9.00
2022-09-28T19:48:42.302Z,9.00
2022-09-28T19:50:15.497Z,7.50
2022-09-28T19:53:43.117Z,8.90
2022-09-28T19:55:18.161Z,6.80
2022-09-28T19:56:52.731Z,7.30
2022-09-28T19:58:32.354Z,8.80
2022-09-28T20:01:38.163Z,7.20
2022-09-28T20:06:17.997Z,8.70
2022-09-28T20:07:51.459Z,8.70
2022-09-28T20:09:24.408Z,8.70
2022-09-28T20:10:59.634Z,8.60
2022-09-28T20:12:32.961Z,7.10
2022-09-28T20:14:09.892Z,8.60
2022-09-28T20:15:42.942Z,8.60
2022-09-28T20:17:16.167Z,9.10
2022-09-28T20:18:50.319Z,9.00
2022-09-28T20:20:23.278Z,7.90
2022-09-28T20:21:59.455Z,10.00
2022-09-28T20:23:32.563Z,8.50
2022-09-28T20:25:06.236Z,8.00
2022-09-28T20:26:39.252Z,8.20
2022-09-28T20:28:12.770Z,9.00
2022-09-28T20:29:47.088Z,8.40
2022-09-28T20:31:21.748Z,9.10
2022-09-28T20:32:54.815Z,9.00
2022-09-28T20:34:27.860Z,9.30
2022-09-28T20:36:06.719Z,8.30
2022-09-28T20:37:39.596Z,8.30
2022-09-28T20:39:13.185Z,7.20
2022-09-28T20:40:46.726Z,8.20
2022-09-28T20:42:20.786Z,9.10
2022-09-28T20:43:55.461Z,7.30
2022-09-28T20:45:29.787Z,7.40
2022-09-28T20:47:02.682Z,6.70
2022-09-28T20:48:36.183Z,7.70
2022-09-28T20:50:11.297Z,7.20
2022-09-28T20:51:44.176Z,9.80
2022-09-28T20:53:17.013Z,8.20
2022-09-28T20:54:50.155Z,9.50
2022-09-28T20:56:24.807Z,8.40
2022-09-28T20:58:02.517Z,7.50
2022-09-28T20:59:35.332Z,8.80
2022-09-28T21:01:13.607Z,9.40
2022-09-28T21:04:20.520Z,8.60
2022-09-28T21:05:52.613Z,7.30
2022-09-28T21:07:25.723Z,7.60
2022-09-28T21:08:58.707Z,7.30
2022-09-28T21:10:31.932Z,7.80
2022-09-28T21:12:05.337Z,9.80
2022-09-28T21:13:42.706Z,7.80
2022-09-28T21:15:15.848Z,8.50
2022-09-28T21:16:50.659Z,6.70
2022-09-28T21:18:24.039Z,6.20
2022-09-28T21:19:56.738Z,7.70
2022-09-28T21:21:29.734Z,7.40
2022-09-28T21:23:02.669Z,7.60
2022-09-28T21:24:35.520Z,8.00
2022-09-28T21:26:09.926Z,6.40
2022-09-28T21:27:42.837Z,8.00
2022-09-28T21:29:16.589Z,8.50
2022-09-28T21:30:51.992Z,7.40
2022-09-28T21:32:26.416Z,6.90
2022-09-28T21:33:59.941Z,8.60
2022-09-28T21:35:35.221Z,7.60
2022-09-28T21:37:08.200Z,6.70
2022-09-28T21:38:41.072Z,8.30
2022-09-28T21:40:14.004Z,7.30
2022-09-28T21:41:47.218Z,6.70
2022-09-28T21:43:20.016Z,8.90
2022-09-28T21:44:56.300Z,7.20
2022-09-28T21:46:34.210Z,6.10
2022-09-28T21:48:08.578Z,6.50
2022-09-28T21:49:41.467Z,6.10
2022-09-28T21:51:15.461Z,7.20
2022-09-28T21:52:48.730Z,7.30
2022-09-28T21:54:21.930Z,7.20
2022-09-28T21:55:55.837Z,6.20
2022-09-28T21:57:28.714Z,7.90
2022-09-28T21:59:02.363Z,7.00
2022-09-28T22:00:35.314Z,7.00